CNJ3 weather

Fort Erie Airport
Fort Erie, Ontario, Canada

Public forecast

Using degrees Celsius for public forecast. Weather courtesy of forecast.io.

Closest aviation weather report (METAR) to Fort Erie Airport

Closest report is Buffalo Niagara International Airport, 10.0 nm (18.5 km) E. Retrieved 2019/10/16 02:54 UTC (24 minutes ago):

KBUF 160254Z 13006KT 10SM FEW100 SCT140 BKN170 BKN280 10/04 A2986 RMK AO2 SLP112 T01000044 56028

Closest aviation forecast (TAF) to Fort Erie Airport

Closest forecast is Buffalo Niagara International Airport, 10.0 nm (18.5 km) E. Retrieved 2019-10-16 00:39 UTC (3 hours ago):

TAF KBUF 152336Z 1600/1624 05008KT P6SM SCT250 FM160600 16010G16KT P6SM BKN120 WS020/20040KT FM161000 17014G22KT 6SM -SHRA OVC040 FM161300 19012G20KT 4SM RA OVC015 FM161700 22010KT 6SM -SHRA OVC015 FM161900 24014G22KT P6SM VCSH BKN025